LTACLTBR

Guest
Details From LTAC - ESENBOGA
To LTBR - YENISEHIR
Flight Number -
Tags decoded
Created
Modified
Stats Distance 158 nm / 292 km
Max Altitude 0 ft / 0 m
Waypoints 3
Social Downloads 0
Likes 0
Share VATSIM

Download

Looking for another format? Having issues loading an existing format? Contact us
Advertisement - Login to hide

Notes

Requested: LTAC PETAR1B PETAR G8 EKMEL EKMEL1E LTBR Unmatched points: PETAR1B G8 EKMEL EKMEL1E

Route

LTAC PETAR LTBR

ID Type Via Altitude Latitude Longitude Leg Dist Tot Dist Heading (true) Name
O LTAC APT - 0 ft / 0 m 40.12828˚ 32.99540˚ - 0 nm - ESENBOGA
PETAR FIX - 0 ft / 0 m 40.17222˚ 32.08194˚ 42 nm 42 nm 274° / 273° -
O LTBR APT - 0 ft / 0 m 40.25521˚ 29.56257˚ 115 nm 157 nm 273° / 272° YENISEHIR

Altitude Profile

Advertisement - Login to hide

LTAC

Details ICAO LTAC (ESB)
Name ESENBOGA
Region Turkey
Timezone Europe/Istanbul (UTC+3.0)
Stats Elevation 3,125 ft / 953 m (AMSL)
Location 40.128285° 32.995403°
Runways 2
Magnetic Variation 5.713° E

METAR

LTAC 122350Z 00000KT 4800 BR NSC M00/M01 Q1022 NOSIG

Decode

TAF

Not found

Departure Runways

ID Width Length Bearing (true) Bearing (mag) Surface Threshold Offset Overrun Length
03L 148 ft / 45 m 12,334 ft / 3,760 m 36.19° 30.48° Asphalt 1,148 ft / 350 m 200 ft / 61 m
03R 197 ft / 60 m 12,258 ft / 3,736 m 35.29° 29.58° Asphalt 0 ft / 0 m 200 ft / 61 m
21L 197 ft / 60 m 12,258 ft / 3,736 m 215.31° 209.60° Asphalt 0 ft / 0 m 200 ft / 61 m
21R 148 ft / 45 m 12,334 ft / 3,760 m 216.21° 210.50° Asphalt 0 ft / 0 m 200 ft / 61 m

LTBR

Details ICAO LTBR (YEI)
Name YENISEHIR
Region Turkey
Timezone Europe/Istanbul (UTC+3.0)
Stats Elevation 764 ft / 233 m (AMSL)
Location 40.255208° 29.562569°
Runways 2
Magnetic Variation 5.407° E

METAR

LTBR 122350Z 15003KT 1100 0300E R25/0300N R07/0375N BCFG BKN005 01/01 Q1022 NOSIG

Decode

TAF

Not found

Destination Runways

ID Width Length Bearing (true) Bearing (mag) Surface Threshold Offset Overrun Length
07L 148 ft / 45 m 9,798 ft / 2,987 m 74.45° 69.04° Concrete 0 ft / 0 m 1,075 ft / 328 m
07R 98 ft / 30 m 9,799 ft / 2,987 m 74.45° 69.04° Concrete 0 ft / 0 m 137 ft / 42 m
25L 98 ft / 30 m 9,799 ft / 2,987 m 254.47° 249.06° Concrete 0 ft / 0 m 603 ft / 184 m
25R 148 ft / 45 m 9,798 ft / 2,987 m 254.48° 249.07° Concrete 0 ft / 0 m 1,082 ft / 330 m

Approach Navaids

Runway Type Ident Frequency Range Bearing (true) Bearing (mag) Slope Elevation
25R Localiser IYEN 109.70 MHz 18 nm / 33 km 254.21° 248.81° - 764 ft / 233 m (AMSL)
25R Glidescope IYEN 109.70 MHz 10 nm / 19 km 254.46° 249.06° 3.00° 798 ft / 243 m (AMSL)

Popular Alternatives